sensor_id;sensor_type;location;lat;lon;timestamp;temperature;humidity
1225;DHT22;602;48.000;7.840;2023-07-29T00:01:32;19.90;99.90
1225;DHT22;602;48.000;7.840;2023-07-29T00:03:59;19.90;99.90
1225;DHT22;602;48.000;7.840;2023-07-29T00:06:26;19.90;99.90
1225;DHT22;602;48.000;7.840;2023-07-29T00:08:53;19.90;99.90
1225;DHT22;602;48.000;7.840;2023-07-29T00:11:20;19.90;99.90
1225;DHT22;602;48.000;7.840;2023-07-29T00:13:48;19.90;99.90
1225;DHT22;602;48.000;7.840;2023-07-29T00:16:15;19.90;99.90
1225;DHT22;602;48.000;7.840;2023-07-29T00:18:42;19.90;99.90
1225;DHT22;602;48.000;7.840;2023-07-29T00:21:09;19.90;99.90
1225;DHT22;602;48.000;7.840;2023-07-29T00:23:36;19.90;99.90
1225;DHT22;602;48.000;7.840;2023-07-29T00:26:03;19.90;99.90
1225;DHT22;602;48.000;7.840;2023-07-29T00:28:30;20.00;99.90
1225;DHT22;602;48.000;7.840;2023-07-29T00:30:58;19.90;99.90
1225;DHT22;602;48.000;7.840;2023-07-29T00:33:25;19.90;99.90
1225;DHT22;602;48.000;7.840;2023-07-29T00:35:52;19.80;99.90
1225;DHT22;602;48.000;7.840;2023-07-29T00:38:19;19.80;99.90
1225;DHT22;602;48.000;7.840;2023-07-29T00:40:46;19.80;99.90
1225;DHT22;602;48.000;7.840;2023-07-29T00:43:13;19.80;99.90
1225;DHT22;602;48.000;7.840;2023-07-29T00:45:43;19.80;99.90
1225;DHT22;602;48.000;7.840;2023-07-29T00:48:12;19.80;99.90
1225;DHT22;602;48.000;7.840;2023-07-29T00:50:39;19.90;99.90
1225;DHT22;602;48.000;7.840;2023-07-29T00:53:06;20.00;99.90
1225;DHT22;602;48.000;7.840;2023-07-29T00:55:34;20.20;99.90
1225;DHT22;602;48.000;7.840;2023-07-29T00:58:00;20.30;99.90
1225;DHT22;602;48.000;7.840;2023-07-29T01:00:27;20.50;99.90
1225;DHT22;602;48.000;7.840;2023-07-29T01:02:54;20.60;99.90
1225;DHT22;602;48.000;7.840;2023-07-29T01:05:25;20.70;99.90
1225;DHT22;602;48.000;7.840;2023-07-29T01:07:59;20.80;99.90
1225;DHT22;602;48.000;7.840;2023-07-29T01:10:35;20.80;99.90
1225;DHT22;602;48.000;7.840;2023-07-29T01:13:13;20.80;99.90
1225;DHT22;602;48.000;7.840;2023-07-29T01:15:46;20.90;99.90
1225;DHT22;602;48.000;7.840;2023-07-29T01:18:18;20.80;99.90
1225;DHT22;602;48.000;7.840;2023-07-29T01:20:50;20.80;99.90
1225;DHT22;602;48.000;7.840;2023-07-29T01:23:24;20.80;99.90
1225;DHT22;602;48.000;7.840;2023-07-29T01:25:51;20.60;99.90
1225;DHT22;602;48.000;7.840;2023-07-29T01:28:18;20.70;99.90
1225;DHT22;602;48.000;7.840;2023-07-29T01:30:45;20.80;99.90
1225;DHT22;602;48.000;7.840;2023-07-29T01:33:19;20.90;99.90
1225;DHT22;602;48.000;7.840;2023-07-29T01:35:48;20.90;99.90
1225;DHT22;602;48.000;7.840;2023-07-29T01:38:19;20.90;99.90
1225;DHT22;602;48.000;7.840;2023-07-29T01:40:49;20.90;99.90
1225;DHT22;602;48.000;7.840;2023-07-29T01:43:17;20.90;99.90
1225;DHT22;602;48.000;7.840;2023-07-29T01:45:49;21.00;99.90
1225;DHT22;602;48.000;7.840;2023-07-29T01:48:16;21.00;99.90
1225;DHT22;602;48.000;7.840;2023-07-29T01:50:43;20.90;99.90
1225;DHT22;602;48.000;7.840;2023-07-29T01:53:10;21.00;99.90
1225;DHT22;602;48.000;7.840;2023-07-29T01:55:37;21.00;99.90
1225;DHT22;602;48.000;7.840;2023-07-29T01:58:05;20.90;99.90
1225;DHT22;602;48.000;7.840;2023-07-29T02:00:32;20.90;99.90
1225;DHT22;602;48.000;7.840;2023-07-29T02:02:58;20.90;99.90
1225;DHT22;602;48.000;7.840;2023-07-29T02:05:25;21.00;99.90
1225;DHT22;602;48.000;7.840;2023-07-29T02:07:52;20.90;99.90
1225;DHT22;602;48.000;7.840;2023-07-29T02:10:19;20.70;99.90
1225;DHT22;602;48.000;7.840;2023-07-29T02:12:46;20.60;99.90
1225;DHT22;602;48.000;7.840;2023-07-29T02:15:14;20.50;99.90
1225;DHT22;602;48.000;7.840;2023-07-29T02:17:41;20.40;99.90
1225;DHT22;602;48.000;7.840;2023-07-29T02:20:09;20.40;99.90
1225;DHT22;602;48.000;7.840;2023-07-29T02:22:36;20.40;99.90
1225;DHT22;602;48.000;7.840;2023-07-29T02:25:04;20.30;99.90
1225;DHT22;602;48.000;7.840;2023-07-29T02:27:31;20.20;99.90
1225;DHT22;602;48.000;7.840;2023-07-29T02:29:58;20.20;99.90
1225;DHT22;602;48.000;7.840;2023-07-29T02:32:27;20.20;99.90
1225;DHT22;602;48.000;7.840;2023-07-29T02:34:54;20.10;99.90
1225;DHT22;602;48.000;7.840;2023-07-29T02:37:20;20.10;99.90
1225;DHT22;602;48.000;7.840;2023-07-29T02:39:47;20.30;99.90
1225;DHT22;602;48.000;7.840;2023-07-29T02:42:14;20.40;99.90
1225;DHT22;602;48.000;7.840;2023-07-29T02:44:41;20.40;99.90
1225;DHT22;602;48.000;7.840;2023-07-29T02:47:08;20.50;99.90
1225;DHT22;602;48.000;7.840;2023-07-29T02:49:36;20.50;99.90
1225;DHT22;602;48.000;7.840;2023-07-29T02:52:04;20.50;99.90
1225;DHT22;602;48.000;7.840;2023-07-29T02:54:31;20.40;99.90
1225;DHT22;602;48.000;7.840;2023-07-29T02:56:58;20.50;99.90
1225;DHT22;602;48.000;7.840;2023-07-29T02:59:24;20.60;99.90
1225;DHT22;602;48.000;7.840;2023-07-29T03:01:52;20.60;99.90
1225;DHT22;602;48.000;7.840;2023-07-29T03:04:19;20.60;99.90
1225;DHT22;602;48.000;7.840;2023-07-29T03:06:47;20.70;99.90
1225;DHT22;602;48.000;7.840;2023-07-29T03:09:14;20.70;99.90
1225;DHT22;602;48.000;7.840;2023-07-29T03:11:41;20.80;99.90
1225;DHT22;602;48.000;7.840;2023-07-29T03:14:08;20.80;99.90
1225;DHT22;602;48.000;7.840;2023-07-29T03:16:35;20.80;99.90
1225;DHT22;602;48.000;7.840;2023-07-29T03:19:01;20.80;99.90
1225;DHT22;602;48.000;7.840;2023-07-29T03:21:28;20.80;99.90
1225;DHT22;602;48.000;7.840;2023-07-29T03:23:56;20.70;99.90
1225;DHT22;602;48.000;7.840;2023-07-29T03:26:23;20.80;99.90
1225;DHT22;602;48.000;7.840;2023-07-29T03:28:50;20.90;99.90
1225;DHT22;602;48.000;7.840;2023-07-29T03:31:17;20.90;99.90
1225;DHT22;602;48.000;7.840;2023-07-29T03:33:44;20.70;99.90
1225;DHT22;602;48.000;7.840;2023-07-29T03:36:11;20.80;99.90
1225;DHT22;602;48.000;7.840;2023-07-29T03:38:38;20.80;99.90
1225;DHT22;602;48.000;7.840;2023-07-29T03:41:07;20.90;99.90
1225;DHT22;602;48.000;7.840;2023-07-29T03:43:35;20.80;99.90
1225;DHT22;602;48.000;7.840;2023-07-29T03:46:01;20.90;99.90
1225;DHT22;602;48.000;7.840;2023-07-29T03:48:29;20.90;99.90
1225;DHT22;602;48.000;7.840;2023-07-29T03:50:56;21.00;99.90
1225;DHT22;602;48.000;7.840;2023-07-29T03:53:23;20.90;99.90
1225;DHT22;602;48.000;7.840;2023-07-29T03:55:50;21.00;99.90
1225;DHT22;602;48.000;7.840;2023-07-29T03:58:19;21.10;99.90
1225;DHT22;602;48.000;7.840;2023-07-29T04:00:45;21.10;99.90
1225;DHT22;602;48.000;7.840;2023-07-29T04:03:12;21.10;99.90
1225;DHT22;602;48.000;7.840;2023-07-29T04:05:39;21.10;99.90
1225;DHT22;602;48.000;7.840;2023-07-29T04:08:07;21.00;99.90
1225;DHT22;602;48.000;7.840;2023-07-29T04:10:34;21.10;99.90
1225;DHT22;602;48.000;7.840;2023-07-29T04:13:01;21.20;99.90
1225;DHT22;602;48.000;7.840;2023-07-29T04:15:29;21.20;99.90
1225;DHT22;602;48.000;7.840;2023-07-29T04:17:56;21.20;99.90
1225;DHT22;602;48.000;7.840;2023-07-29T04:20:23;21.20;99.90
1225;DHT22;602;48.000;7.840;2023-07-29T04:22:50;21.20;99.90
1225;DHT22;602;48.000;7.840;2023-07-29T04:25:17;21.20;99.90
1225;DHT22;602;48.000;7.840;2023-07-29T04:27:44;21.20;99.90
1225;DHT22;602;48.000;7.840;2023-07-29T04:30:11;21.30;99.90
1225;DHT22;602;48.000;7.840;2023-07-29T04:32:39;21.40;99.90
1225;DHT22;602;48.000;7.840;2023-07-29T04:35:08;21.40;99.90
1225;DHT22;602;48.000;7.840;2023-07-29T04:37:35;21.40;99.90
1225;DHT22;602;48.000;7.840;2023-07-29T04:40:02;21.40;99.90
1225;DHT22;602;48.000;7.840;2023-07-29T04:42:29;21.40;99.90
1225;DHT22;602;48.000;7.840;2023-07-29T04:44:55;21.40;99.90
1225;DHT22;602;48.000;7.840;2023-07-29T04:47:23;21.40;99.90
1225;DHT22;602;48.000;7.840;2023-07-29T04:49:51;21.50;99.90
1225;DHT22;602;48.000;7.840;2023-07-29T04:52:18;21.50;99.90
1225;DHT22;602;48.000;7.840;2023-07-29T04:54:45;21.60;99.90
1225;DHT22;602;48.000;7.840;2023-07-29T04:57:12;21.60;99.90
1225;DHT22;602;48.000;7.840;2023-07-29T04:59:39;21.60;99.90
1225;DHT22;602;48.000;7.840;2023-07-29T05:02:06;21.70;99.90
1225;DHT22;602;48.000;7.840;2023-07-29T05:04:32;21.70;99.90
1225;DHT22;602;48.000;7.840;2023-07-29T05:07:01;21.70;99.90
1225;DHT22;602;48.000;7.840;2023-07-29T05:09:28;21.70;99.90
1225;DHT22;602;48.000;7.840;2023-07-29T05:11:54;21.80;99.90
1225;DHT22;602;48.000;7.840;2023-07-29T05:14:21;21.80;99.90
1225;DHT22;602;48.000;7.840;2023-07-29T05:16:48;21.80;99.90
1225;DHT22;602;48.000;7.840;2023-07-29T05:19:15;21.80;99.90
1225;DHT22;602;48.000;7.840;2023-07-29T05:21:42;21.80;99.90
1225;DHT22;602;48.000;7.840;2023-07-29T05:24:10;21.80;99.90
1225;DHT22;602;48.000;7.840;2023-07-29T05:26:37;21.90;99.90
1225;DHT22;602;48.000;7.840;2023-07-29T05:29:04;21.80;99.90
1225;DHT22;602;48.000;7.840;2023-07-29T05:31:31;21.80;99.90
1225;DHT22;602;48.000;7.840;2023-07-29T05:33:59;21.80;99.90
1225;DHT22;602;48.000;7.840;2023-07-29T05:36:26;21.90;99.90
1225;DHT22;602;48.000;7.840;2023-07-29T05:38:52;21.90;99.90
1225;DHT22;602;48.000;7.840;2023-07-29T05:41:21;22.00;99.90
1225;DHT22;602;48.000;7.840;2023-07-29T05:43:48;22.00;99.90
1225;DHT22;602;48.000;7.840;2023-07-29T05:46:14;22.10;99.90
1225;DHT22;602;48.000;7.840;2023-07-29T05:48:41;22.20;99.90
1225;DHT22;602;48.000;7.840;2023-07-29T05:51:08;22.10;99.90
1225;DHT22;602;48.000;7.840;2023-07-29T05:53:35;22.10;99.90
1225;DHT22;602;48.000;7.840;2023-07-29T05:56:02;22.10;99.90
1225;DHT22;602;48.000;7.840;2023-07-29T05:58:30;22.10;99.90
1225;DHT22;602;48.000;7.840;2023-07-29T06:00:57;22.10;99.90
1225;DHT22;602;48.000;7.840;2023-07-29T06:03:24;22.10;99.90
1225;DHT22;602;48.000;7.840;2023-07-29T06:05:51;22.20;99.90
1225;DHT22;602;48.000;7.840;2023-07-29T06:08:18;22.20;99.90
1225;DHT22;602;48.000;7.840;2023-07-29T06:10:45;22.40;99.90
1225;DHT22;602;48.000;7.840;2023-07-29T06:13:12;22.30;99.90
1225;DHT22;602;48.000;7.840;2023-07-29T06:15:40;22.40;99.90
1225;DHT22;602;48.000;7.840;2023-07-29T06:18:07;22.50;99.90
1225;DHT22;602;48.000;7.840;2023-07-29T06:20:34;22.60;99.90
1225;DHT22;602;48.000;7.840;2023-07-29T06:23:01;22.60;99.90
1225;DHT22;602;48.000;7.840;2023-07-29T06:25:28;22.60;99.90
1225;DHT22;602;48.000;7.840;2023-07-29T06:27:55;22.60;99.90
1225;DHT22;602;48.000;7.840;2023-07-29T06:30:23;22.70;99.90
1225;DHT22;602;48.000;7.840;2023-07-29T06:32:52;22.70;99.90
1225;DHT22;602;48.000;7.840;2023-07-29T06:35:19;22.80;99.90
1225;DHT22;602;48.000;7.840;2023-07-29T06:37:45;22.80;99.90
1225;DHT22;602;48.000;7.840;2023-07-29T06:40:12;22.80;99.90
1225;DHT22;602;48.000;7.840;2023-07-29T06:42:39;22.80;99.90
1225;DHT22;602;48.000;7.840;2023-07-29T06:45:07;22.80;99.90
1225;DHT22;602;48.000;7.840;2023-07-29T06:47:34;22.60;99.90
1225;DHT22;602;48.000;7.840;2023-07-29T06:50:03;22.40;99.90
1225;DHT22;602;48.000;7.840;2023-07-29T06:52:29;22.20;99.90
1225;DHT22;602;48.000;7.840;2023-07-29T06:54:56;21.90;99.90
1225;DHT22;602;48.000;7.840;2023-07-29T06:57:23;21.80;99.90
1225;DHT22;602;48.000;7.840;2023-07-29T06:59:50;21.90;99.90
1225;DHT22;602;48.000;7.840;2023-07-29T07:02:17;21.90;99.90
1225;DHT22;602;48.000;7.840;2023-07-29T07:04:44;21.80;99.90
1225;DHT22;602;48.000;7.840;2023-07-29T07:07:12;21.80;99.90
1225;DHT22;602;48.000;7.840;2023-07-29T07:09:39;21.80;99.90
1225;DHT22;602;48.000;7.840;2023-07-29T07:12:06;21.80;99.90
1225;DHT22;602;48.000;7.840;2023-07-29T07:14:33;21.80;99.90
1225;DHT22;602;48.000;7.840;2023-07-29T07:17:00;21.80;99.90
1225;DHT22;602;48.000;7.840;2023-07-29T07:19:27;21.80;99.90
1225;DHT22;602;48.000;7.840;2023-07-29T07:21:54;21.80;99.90
1225;DHT22;602;48.000;7.840;2023-07-29T07:24:22;21.80;99.90
1225;DHT22;602;48.000;7.840;2023-07-29T07:26:49;21.80;99.90
1225;DHT22;602;48.000;7.840;2023-07-29T07:29:16;21.80;99.90
1225;DHT22;602;48.000;7.840;2023-07-29T07:31:50;21.90;99.90
1225;DHT22;602;48.000;7.840;2023-07-29T07:34:17;22.00;99.90
1225;DHT22;602;48.000;7.840;2023-07-29T07:36:44;22.10;99.90
1225;DHT22;602;48.000;7.840;2023-07-29T07:39:10;22.20;99.90
1225;DHT22;602;48.000;7.840;2023-07-29T07:41:39;22.30;99.90
1225;DHT22;602;48.000;7.840;2023-07-29T07:44:06;22.30;99.90
1225;DHT22;602;48.000;7.840;2023-07-29T07:46:32;22.30;99.90
1225;DHT22;602;48.000;7.840;2023-07-29T07:48:59;22.40;99.90
1225;DHT22;602;48.000;7.840;2023-07-29T07:51:26;22.60;99.90
1225;DHT22;602;48.000;7.840;2023-07-29T07:53:53;22.80;99.90
1225;DHT22;602;48.000;7.840;2023-07-29T07:56:20;23.00;99.90
1225;DHT22;602;48.000;7.840;2023-07-29T07:58:48;23.30;99.90
1225;DHT22;602;48.000;7.840;2023-07-29T08:01:15;23.60;99.90
1225;DHT22;602;48.000;7.840;2023-07-29T08:03:42;23.80;99.90
1225;DHT22;602;48.000;7.840;2023-07-29T08:06:08;24.00;99.90
1225;DHT22;602;48.000;7.840;2023-07-29T08:08:35;24.30;99.90
1225;DHT22;602;48.000;7.840;2023-07-29T08:11:02;24.60;99.90
1225;DHT22;602;48.000;7.840;2023-07-29T08:13:29;24.80;99.90
1225;DHT22;602;48.000;7.840;2023-07-29T08:15:58;24.90;99.90
1225;DHT22;602;48.000;7.840;2023-07-29T08:18:25;25.00;99.90
1225;DHT22;602;48.000;7.840;2023-07-29T08:20:53;25.30;99.90
1225;DHT22;602;48.000;7.840;2023-07-29T08:23:21;25.40;99.90
1225;DHT22;602;48.000;7.840;2023-07-29T08:25:52;25.40;99.90
1225;DHT22;602;48.000;7.840;2023-07-29T08:28:19;25.40;99.90
1225;DHT22;602;48.000;7.840;2023-07-29T08:30:46;25.50;99.90
1225;DHT22;602;48.000;7.840;2023-07-29T08:33:15;25.30;99.90
1225;DHT22;602;48.000;7.840;2023-07-29T08:35:42;25.20;99.90
1225;DHT22;602;48.000;7.840;2023-07-29T08:38:08;25.20;99.90
1225;DHT22;602;48.000;7.840;2023-07-29T08:40:37;25.40;99.90
1225;DHT22;602;48.000;7.840;2023-07-29T08:43:05;25.50;99.90
1225;DHT22;602;48.000;7.840;2023-07-29T08:45:34;25.70;99.90
1225;DHT22;602;48.000;7.840;2023-07-29T08:48:03;25.70;99.90
1225;DHT22;602;48.000;7.840;2023-07-29T08:50:35;25.80;99.90
1225;DHT22;602;48.000;7.840;2023-07-29T08:53:04;26.00;99.90
1225;DHT22;602;48.000;7.840;2023-07-29T08:55:31;26.10;99.90
1225;DHT22;602;48.000;7.840;2023-07-29T08:57:59;26.30;99.90
1225;DHT22;602;48.000;7.840;2023-07-29T09:00:27;26.50;99.90
1225;DHT22;602;48.000;7.840;2023-07-29T09:02:54;26.70;99.90
1225;DHT22;602;48.000;7.840;2023-07-29T09:05:21;26.80;99.90
1225;DHT22;602;48.000;7.840;2023-07-29T09:07:51;26.80;99.90
1225;DHT22;602;48.000;7.840;2023-07-29T09:10:21;26.80;99.90
1225;DHT22;602;48.000;7.840;2023-07-29T09:12:48;27.00;99.90
1225;DHT22;602;48.000;7.840;2023-07-29T09:15:27;27.00;99.90
1225;DHT22;602;48.000;7.840;2023-07-29T09:17:55;27.10;99.90
1225;DHT22;602;48.000;7.840;2023-07-29T09:20:26;27.10;99.90
1225;DHT22;602;48.000;7.840;2023-07-29T09:22:58;27.30;99.90
1225;DHT22;602;48.000;7.840;2023-07-29T09:25:26;27.30;99.90
1225;DHT22;602;48.000;7.840;2023-07-29T09:27:53;27.30;99.90
1225;DHT22;602;48.000;7.840;2023-07-29T09:30:25;27.30;99.90
1225;DHT22;602;48.000;7.840;2023-07-29T09:32:55;27.30;99.90
1225;DHT22;602;48.000;7.840;2023-07-29T09:35:22;27.40;99.90
1225;DHT22;602;48.000;7.840;2023-07-29T09:37:50;27.30;99.90
1225;DHT22;602;48.000;7.840;2023-07-29T09:40:19;27.40;99.90
1225;DHT22;602;48.000;7.840;2023-07-29T09:42:49;27.40;99.90
1225;DHT22;602;48.000;7.840;2023-07-29T09:45:20;27.10;99.90
1225;DHT22;602;48.000;7.840;2023-07-29T09:47:48;27.00;99.90
1225;DHT22;602;48.000;7.840;2023-07-29T09:50:15;26.90;99.90
1225;DHT22;602;48.000;7.840;2023-07-29T09:52:42;26.80;99.90
1225;DHT22;602;48.000;7.840;2023-07-29T09:55:11;26.90;99.90
1225;DHT22;602;48.000;7.840;2023-07-29T09:57:40;26.90;99.90
1225;DHT22;602;48.000;7.840;2023-07-29T10:00:09;27.00;99.90
1225;DHT22;602;48.000;7.840;2023-07-29T10:02:38;27.30;99.90
1225;DHT22;602;48.000;7.840;2023-07-29T10:05:06;27.40;99.90
1225;DHT22;602;48.000;7.840;2023-07-29T10:07:35;27.70;99.90
1225;DHT22;602;48.000;7.840;2023-07-29T10:10:04;27.70;99.90
1225;DHT22;602;48.000;7.840;2023-07-29T10:12:32;27.70;99.90
1225;DHT22;602;48.000;7.840;2023-07-29T10:15:03;27.70;99.90
1225;DHT22;602;48.000;7.840;2023-07-29T10:17:30;27.70;99.90
1225;DHT22;602;48.000;7.840;2023-07-29T10:20:00;27.80;99.90
1225;DHT22;602;48.000;7.840;2023-07-29T10:22:30;27.90;99.90
1225;DHT22;602;48.000;7.840;2023-07-29T10:25:03;28.00;99.90
1225;DHT22;602;48.000;7.840;2023-07-29T10:27:34;27.90;99.90
1225;DHT22;602;48.000;7.840;2023-07-29T10:30:04;27.60;99.90
1225;DHT22;602;48.000;7.840;2023-07-29T10:32:32;27.50;99.90
1225;DHT22;602;48.000;7.840;2023-07-29T10:34:59;27.50;99.90
1225;DHT22;602;48.000;7.840;2023-07-29T10:37:26;27.50;99.90
1225;DHT22;602;48.000;7.840;2023-07-29T10:39:54;27.50;99.90
1225;DHT22;602;48.000;7.840;2023-07-29T10:42:22;27.60;99.90
1225;DHT22;602;48.000;7.840;2023-07-29T10:44:50;27.70;99.90
1225;DHT22;602;48.000;7.840;2023-07-29T10:47:21;27.80;99.90
1225;DHT22;602;48.000;7.840;2023-07-29T10:49:57;27.90;99.90
1225;DHT22;602;48.000;7.840;2023-07-29T10:52:30;28.10;99.90
1225;DHT22;602;48.000;7.840;2023-07-29T10:54:57;28.30;99.90
1225;DHT22;602;48.000;7.840;2023-07-29T10:57:31;28.40;99.90
1225;DHT22;602;48.000;7.840;2023-07-29T10:59:59;28.40;99.90
1225;DHT22;602;48.000;7.840;2023-07-29T11:02:31;28.40;99.90
1225;DHT22;602;48.000;7.840;2023-07-29T11:04:59;28.50;99.90
1225;DHT22;602;48.000;7.840;2023-07-29T11:07:31;28.30;99.90
1225;DHT22;602;48.000;7.840;2023-07-29T11:10:01;28.20;99.90
1225;DHT22;602;48.000;7.840;2023-07-29T11:12:43;28.20;99.90
1225;DHT22;602;48.000;7.840;2023-07-29T11:15:19;28.10;99.90
1225;DHT22;602;48.000;7.840;2023-07-29T11:17:49;28.20;99.90
1225;DHT22;602;48.000;7.840;2023-07-29T11:20:17;28.20;99.90
1225;DHT22;602;48.000;7.840;2023-07-29T11:22:45;28.20;99.90
1225;DHT22;602;48.000;7.840;2023-07-29T11:25:13;28.20;99.90
1225;DHT22;602;48.000;7.840;2023-07-29T11:27:40;28.10;99.90
1225;DHT22;602;48.000;7.840;2023-07-29T11:30:08;28.20;99.90
1225;DHT22;602;48.000;7.840;2023-07-29T11:32:37;28.20;99.90
1225;DHT22;602;48.000;7.840;2023-07-29T11:35:07;28.20;99.90
1225;DHT22;602;48.000;7.840;2023-07-29T11:37:35;28.20;99.90
1225;DHT22;602;48.000;7.840;2023-07-29T11:40:03;28.10;99.90
1225;DHT22;602;48.000;7.840;2023-07-29T11:42:32;28.20;99.90
1225;DHT22;602;48.000;7.840;2023-07-29T11:45:00;28.30;99.90
1225;DHT22;602;48.000;7.840;2023-07-29T11:47:27;28.50;99.90
1225;DHT22;602;48.000;7.840;2023-07-29T11:49:54;28.50;99.90
1225;DHT22;602;48.000;7.840;2023-07-29T11:52:22;28.60;99.90
1225;DHT22;602;48.000;7.840;2023-07-29T11:54:49;28.60;99.90
1225;DHT22;602;48.000;7.840;2023-07-29T11:57:16;28.60;99.90
1225;DHT22;602;48.000;7.840;2023-07-29T11:59:44;28.60;99.90
1225;DHT22;602;48.000;7.840;2023-07-29T12:02:13;28.70;99.90
1225;DHT22;602;48.000;7.840;2023-07-29T12:04:40;28.80;99.90
1225;DHT22;602;48.000;7.840;2023-07-29T12:07:08;28.90;99.90
1225;DHT22;602;48.000;7.840;2023-07-29T12:09:36;29.00;99.90
1225;DHT22;602;48.000;7.840;2023-07-29T12:12:05;29.00;99.90
1225;DHT22;602;48.000;7.840;2023-07-29T12:14:32;29.10;99.90
1225;DHT22;602;48.000;7.840;2023-07-29T12:17:00;29.20;99.90
1225;DHT22;602;48.000;7.840;2023-07-29T12:19:39;29.20;99.90
1225;DHT22;602;48.000;7.840;2023-07-29T12:22:08;29.10;99.90
1225;DHT22;602;48.000;7.840;2023-07-29T12:24:38;29.00;99.90
1225;DHT22;602;48.000;7.840;2023-07-29T12:27:09;29.00;99.90
1225;DHT22;602;48.000;7.840;2023-07-29T12:29:40;29.00;99.90
1225;DHT22;602;48.000;7.840;2023-07-29T12:32:07;29.00;99.90
1225;DHT22;602;48.000;7.840;2023-07-29T12:34:38;28.80;99.90
1225;DHT22;602;48.000;7.840;2023-07-29T12:37:06;28.90;99.90
1225;DHT22;602;48.000;7.840;2023-07-29T12:39:34;28.90;99.90
1225;DHT22;602;48.000;7.840;2023-07-29T12:42:03;28.80;99.90
1225;DHT22;602;48.000;7.840;2023-07-29T12:44:31;28.80;99.90
1225;DHT22;602;48.000;7.840;2023-07-29T12:47:00;28.80;99.90
1225;DHT22;602;48.000;7.840;2023-07-29T12:49:27;28.70;99.90
1225;DHT22;602;48.000;7.840;2023-07-29T12:51:55;28.60;99.90
1225;DHT22;602;48.000;7.840;2023-07-29T12:54:22;28.50;99.90
1225;DHT22;602;48.000;7.840;2023-07-29T12:56:53;28.40;99.90
1225;DHT22;602;48.000;7.840;2023-07-29T12:59:22;28.50;99.90
1225;DHT22;602;48.000;7.840;2023-07-29T13:01:49;28.50;99.90
1225;DHT22;602;48.000;7.840;2023-07-29T13:04:15;28.50;99.90
1225;DHT22;602;48.000;7.840;2023-07-29T13:06:42;28.40;99.90
1225;DHT22;602;48.000;7.840;2023-07-29T13:09:09;28.40;99.90
1225;DHT22;602;48.000;7.840;2023-07-29T13:11:36;28.40;99.90
1225;DHT22;602;48.000;7.840;2023-07-29T13:14:03;28.30;99.90
1225;DHT22;602;48.000;7.840;2023-07-29T13:16:31;28.30;99.90
1225;DHT22;602;48.000;7.840;2023-07-29T13:18:58;28.30;99.90
1225;DHT22;602;48.000;7.840;2023-07-29T13:21:25;28.30;99.90
1225;DHT22;602;48.000;7.840;2023-07-29T13:23:52;28.30;99.90
1225;DHT22;602;48.000;7.840;2023-07-29T13:26:19;28.30;99.90
1225;DHT22;602;48.000;7.840;2023-07-29T13:28:45;28.30;99.90
1225;DHT22;602;48.000;7.840;2023-07-29T13:31:12;28.30;99.90
1225;DHT22;602;48.000;7.840;2023-07-29T13:33:40;28.30;99.90
1225;DHT22;602;48.000;7.840;2023-07-29T13:36:07;28.30;99.90
1225;DHT22;602;48.000;7.840;2023-07-29T13:38:34;28.20;99.90
1225;DHT22;602;48.000;7.840;2023-07-29T13:41:01;28.20;99.90
1225;DHT22;602;48.000;7.840;2023-07-29T13:43:28;28.10;99.90
1225;DHT22;602;48.000;7.840;2023-07-29T13:45:55;28.10;99.90
1225;DHT22;602;48.000;7.840;2023-07-29T13:48:22;28.00;99.90
1225;DHT22;602;48.000;7.840;2023-07-29T13:50:50;27.80;99.90
1225;DHT22;602;48.000;7.840;2023-07-29T13:53:17;27.80;99.90
1225;DHT22;602;48.000;7.840;2023-07-29T13:55:45;27.80;99.90
1225;DHT22;602;48.000;7.840;2023-07-29T13:58:11;27.70;99.90
1225;DHT22;602;48.000;7.840;2023-07-29T14:00:38;27.60;99.90
1225;DHT22;602;48.000;7.840;2023-07-29T14:03:05;27.60;99.90
1225;DHT22;602;48.000;7.840;2023-07-29T14:05:32;27.50;99.90
1225;DHT22;602;48.000;7.840;2023-07-29T14:08:00;27.50;99.90
1225;DHT22;602;48.000;7.840;2023-07-29T14:10:29;27.50;99.90
1225;DHT22;602;48.000;7.840;2023-07-29T14:12:58;27.50;99.90
1225;DHT22;602;48.000;7.840;2023-07-29T14:15:25;27.50;99.90
1225;DHT22;602;48.000;7.840;2023-07-29T14:17:54;27.50;99.90
1225;DHT22;602;48.000;7.840;2023-07-29T14:20:20;27.50;99.90
1225;DHT22;602;48.000;7.840;2023-07-29T14:22:47;27.50;99.90
1225;DHT22;602;48.000;7.840;2023-07-29T14:25:17;27.30;99.90
1225;DHT22;602;48.000;7.840;2023-07-29T14:27:44;27.10;99.90
1225;DHT22;602;48.000;7.840;2023-07-29T14:30:11;27.10;99.90
1225;DHT22;602;48.000;7.840;2023-07-29T14:32:38;26.90;99.90
1225;DHT22;602;48.000;7.840;2023-07-29T14:35:05;26.60;99.90
1225;DHT22;602;48.000;7.840;2023-07-29T14:37:33;26.40;99.90
1225;DHT22;602;48.000;7.840;2023-07-29T14:40:01;26.30;99.90
1225;DHT22;602;48.000;7.840;2023-07-29T14:42:29;26.10;99.90
1225;DHT22;602;48.000;7.840;2023-07-29T14:44:56;25.90;99.90
1225;DHT22;602;48.000;7.840;2023-07-29T14:47:23;25.90;99.90
1225;DHT22;602;48.000;7.840;2023-07-29T14:49:50;25.90;99.90
1225;DHT22;602;48.000;7.840;2023-07-29T14:52:17;25.80;99.90
1225;DHT22;602;48.000;7.840;2023-07-29T14:54:43;25.80;99.90
1225;DHT22;602;48.000;7.840;2023-07-29T14:57:10;25.90;99.90
1225;DHT22;602;48.000;7.840;2023-07-29T14:59:39;25.80;99.90
1225;DHT22;602;48.000;7.840;2023-07-29T15:02:06;25.70;99.90
1225;DHT22;602;48.000;7.840;2023-07-29T15:04:33;25.60;99.90
1225;DHT22;602;48.000;7.840;2023-07-29T15:07:01;25.50;99.90
1225;DHT22;602;48.000;7.840;2023-07-29T15:09:28;25.40;99.90
1225;DHT22;602;48.000;7.840;2023-07-29T15:11:55;25.50;99.90
1225;DHT22;602;48.000;7.840;2023-07-29T15:14:22;25.40;99.90
1225;DHT22;602;48.000;7.840;2023-07-29T15:16:55;25.50;99.90
1225;DHT22;602;48.000;7.840;2023-07-29T15:19:23;25.20;99.90
1225;DHT22;602;48.000;7.840;2023-07-29T15:21:50;25.10;99.90
1225;DHT22;602;48.000;7.840;2023-07-29T15:24:17;25.00;99.90
1225;DHT22;602;48.000;7.840;2023-07-29T15:26:44;24.80;99.90
1225;DHT22;602;48.000;7.840;2023-07-29T15:29:11;24.80;99.90
1225;DHT22;602;48.000;7.840;2023-07-29T15:31:40;24.80;99.90
1225;DHT22;602;48.000;7.840;2023-07-29T15:34:08;24.70;99.90
1225;DHT22;602;48.000;7.840;2023-07-29T15:36:35;24.70;99.90
1225;DHT22;602;48.000;7.840;2023-07-29T15:39:01;24.70;99.90
1225;DHT22;602;48.000;7.840;2023-07-29T15:41:31;24.70;99.90
1225;DHT22;602;48.000;7.840;2023-07-29T15:43:58;24.70;99.90
1225;DHT22;602;48.000;7.840;2023-07-29T15:46:25;24.70;99.90
1225;DHT22;602;48.000;7.840;2023-07-29T15:48:52;24.70;99.90
1225;DHT22;602;48.000;7.840;2023-07-29T15:51:25;24.80;99.90
1225;DHT22;602;48.000;7.840;2023-07-29T15:53:52;24.70;99.90
1225;DHT22;602;48.000;7.840;2023-07-29T15:56:19;24.70;99.90
1225;DHT22;602;48.000;7.840;2023-07-29T15:58:46;24.70;99.90
1225;DHT22;602;48.000;7.840;2023-07-29T16:01:12;24.70;99.90
1225;DHT22;602;48.000;7.840;2023-07-29T16:03:39;24.60;99.90
1225;DHT22;602;48.000;7.840;2023-07-29T16:06:06;24.60;99.90
1225;DHT22;602;48.000;7.840;2023-07-29T16:08:34;24.60;99.90
1225;DHT22;602;48.000;7.840;2023-07-29T16:11:01;24.50;99.90
1225;DHT22;602;48.000;7.840;2023-07-29T16:13:28;24.60;99.90
1225;DHT22;602;48.000;7.840;2023-07-29T16:15:55;24.50;99.90
1225;DHT22;602;48.000;7.840;2023-07-29T16:18:23;24.60;99.90
1225;DHT22;602;48.000;7.840;2023-07-29T16:20:50;24.60;99.90